sensor_id;sensor_type;location;lat;lon;timestamp;P1;durP1;ratioP1;P2;durP2;ratioP2
31638;SDS011;18248;51.522;7.020;2024-03-02T00:00:23;1.58;;;1.23;;
31638;SDS011;18248;51.522;7.020;2024-03-02T00:03:23;3.15;;;1.45;;
31638;SDS011;18248;51.522;7.020;2024-03-02T00:06:22;3.42;;;1.20;;
31638;SDS011;18248;51.522;7.020;2024-03-02T00:09:21;2.30;;;1.13;;
31638;SDS011;18248;51.522;7.020;2024-03-02T00:12:20;2.92;;;1.33;;
31638;SDS011;18248;51.522;7.020;2024-03-02T00:18:43;11.90;;;1.88;;
31638;SDS011;18248;51.522;7.020;2024-03-02T00:21:42;3.67;;;1.50;;
31638;SDS011;18248;51.522;7.020;2024-03-02T00:24:40;4.18;;;1.70;;
31638;SDS011;18248;51.522;7.020;2024-03-02T00:27:39;5.85;;;1.95;;
31638;SDS011;18248;51.522;7.020;2024-03-02T00:30:43;3.40;;;1.35;;
31638;SDS011;18248;51.522;7.020;2024-03-02T00:34:12;6.22;;;1.40;;
31638;SDS011;18248;51.522;7.020;2024-03-02T00:37:14;3.70;;;1.55;;
31638;SDS011;18248;51.522;7.020;2024-03-02T00:40:12;4.03;;;1.38;;
31638;SDS011;18248;51.522;7.020;2024-03-02T00:43:26;3.92;;;1.38;;
31638;SDS011;18248;51.522;7.020;2024-03-02T00:46:40;2.47;;;1.13;;
31638;SDS011;18248;51.522;7.020;2024-03-02T00:49:41;3.20;;;1.40;;
31638;SDS011;18248;51.522;7.020;2024-03-02T00:52:40;5.25;;;1.83;;
31638;SDS011;18248;51.522;7.020;2024-03-02T00:55:39;3.53;;;1.40;;
31638;SDS011;18248;51.522;7.020;2024-03-02T00:58:42;3.17;;;1.30;;
31638;SDS011;18248;51.522;7.020;2024-03-02T01:01:40;7.38;;;1.40;;
31638;SDS011;18248;51.522;7.020;2024-03-02T01:04:40;3.95;;;1.20;;
31638;SDS011;18248;51.522;7.020;2024-03-02T01:07:39;7.25;;;1.23;;
31638;SDS011;18248;51.522;7.020;2024-03-02T01:10:37;5.47;;;1.25;;
31638;SDS011;18248;51.522;7.020;2024-03-02T01:13:36;2.35;;;1.33;;
31638;SDS011;18248;51.522;7.020;2024-03-02T01:16:35;6.40;;;1.35;;
31638;SDS011;18248;51.522;7.020;2024-03-02T01:19:33;3.80;;;1.00;;
31638;SDS011;18248;51.522;7.020;2024-03-02T01:22:32;4.35;;;1.50;;
31638;SDS011;18248;51.522;7.020;2024-03-02T01:25:30;5.80;;;1.60;;
31638;SDS011;18248;51.522;7.020;2024-03-02T01:28:29;2.88;;;1.10;;
31638;SDS011;18248;51.522;7.020;2024-03-02T01:31:27;2.08;;;1.10;;
31638;SDS011;18248;51.522;7.020;2024-03-02T01:34:26;3.58;;;1.10;;
31638;SDS011;18248;51.522;7.020;2024-03-02T01:37:24;3.35;;;1.13;;
31638;SDS011;18248;51.522;7.020;2024-03-02T01:40:23;2.83;;;1.42;;
31638;SDS011;18248;51.522;7.020;2024-03-02T01:43:24;3.95;;;1.15;;
31638;SDS011;18248;51.522;7.020;2024-03-02T01:46:24;2.55;;;0.90;;
31638;SDS011;18248;51.522;7.020;2024-03-02T01:49:22;3.53;;;1.08;;
31638;SDS011;18248;51.522;7.020;2024-03-02T01:52:21;3.30;;;0.98;;
31638;SDS011;18248;51.522;7.020;2024-03-02T01:55:19;4.88;;;0.93;;
31638;SDS011;18248;51.522;7.020;2024-03-02T01:58:18;3.40;;;1.30;;
31638;SDS011;18248;51.522;7.020;2024-03-02T02:01:16;2.80;;;1.00;;
31638;SDS011;18248;51.522;7.020;2024-03-02T02:04:15;3.28;;;1.42;;
31638;SDS011;18248;51.522;7.020;2024-03-02T02:07:13;9.40;;;1.70;;
31638;SDS011;18248;51.522;7.020;2024-03-02T02:10:12;2.72;;;1.02;;
31638;SDS011;18248;51.522;7.020;2024-03-02T02:13:11;2.35;;;0.90;;
31638;SDS011;18248;51.522;7.020;2024-03-02T02:16:10;3.60;;;1.25;;
31638;SDS011;18248;51.522;7.020;2024-03-02T02:19:08;2.75;;;1.30;;
31638;SDS011;18248;51.522;7.020;2024-03-02T02:22:07;3.50;;;0.80;;
31638;SDS011;18248;51.522;7.020;2024-03-02T02:25:06;2.85;;;1.13;;
31638;SDS011;18248;51.522;7.020;2024-03-02T02:28:05;4.05;;;1.30;;
31638;SDS011;18248;51.522;7.020;2024-03-02T02:31:04;1.88;;;1.05;;
31638;SDS011;18248;51.522;7.020;2024-03-02T02:34:02;1.65;;;1.13;;
31638;SDS011;18248;51.522;7.020;2024-03-02T02:37:01;3.80;;;1.17;;
31638;SDS011;18248;51.522;7.020;2024-03-02T02:40:00;4.93;;;1.20;;
31638;SDS011;18248;51.522;7.020;2024-03-02T02:42:59;7.20;;;1.40;;
31638;SDS011;18248;51.522;7.020;2024-03-02T02:45:58;2.78;;;1.25;;
31638;SDS011;18248;51.522;7.020;2024-03-02T02:48:56;2.67;;;0.93;;
31638;SDS011;18248;51.522;7.020;2024-03-02T02:51:55;3.08;;;1.13;;
31638;SDS011;18248;51.522;7.020;2024-03-02T02:54:54;5.35;;;1.20;;
31638;SDS011;18248;51.522;7.020;2024-03-02T02:57:59;3.70;;;1.30;;
31638;SDS011;18248;51.522;7.020;2024-03-02T03:00:57;3.65;;;1.02;;
31638;SDS011;18248;51.522;7.020;2024-03-02T03:03:56;3.67;;;1.00;;
31638;SDS011;18248;51.522;7.020;2024-03-02T03:06:54;6.78;;;1.20;;
31638;SDS011;18248;51.522;7.020;2024-03-02T03:09:53;2.85;;;1.50;;
31638;SDS011;18248;51.522;7.020;2024-03-02T03:12:51;3.42;;;1.13;;
31638;SDS011;18248;51.522;7.020;2024-03-02T03:15:50;3.15;;;1.10;;
31638;SDS011;18248;51.522;7.020;2024-03-02T03:18:49;3.22;;;1.15;;
31638;SDS011;18248;51.522;7.020;2024-03-02T03:21:49;1.85;;;1.08;;
31638;SDS011;18248;51.522;7.020;2024-03-02T03:24:48;2.67;;;0.90;;
31638;SDS011;18248;51.522;7.020;2024-03-02T03:27:46;2.92;;;1.20;;
31638;SDS011;18248;51.522;7.020;2024-03-02T03:30:45;3.13;;;1.05;;
31638;SDS011;18248;51.522;7.020;2024-03-02T03:33:43;1.60;;;1.00;;
31638;SDS011;18248;51.522;7.020;2024-03-02T03:36:42;3.88;;;1.25;;
31638;SDS011;18248;51.522;7.020;2024-03-02T03:39:41;3.78;;;1.08;;
31638;SDS011;18248;51.522;7.020;2024-03-02T03:42:39;4.40;;;1.20;;
31638;SDS011;18248;51.522;7.020;2024-03-02T03:45:38;4.78;;;1.17;;
31638;SDS011;18248;51.522;7.020;2024-03-02T03:48:36;3.28;;;1.02;;
31638;SDS011;18248;51.522;7.020;2024-03-02T03:51:35;2.65;;;1.20;;
31638;SDS011;18248;51.522;7.020;2024-03-02T03:54:33;3.50;;;1.10;;
31638;SDS011;18248;51.522;7.020;2024-03-02T03:57:32;4.50;;;1.00;;
31638;SDS011;18248;51.522;7.020;2024-03-02T04:00:30;4.10;;;1.45;;
31638;SDS011;18248;51.522;7.020;2024-03-02T04:03:29;4.43;;;1.02;;
31638;SDS011;18248;51.522;7.020;2024-03-02T04:06:28;3.65;;;1.60;;
31638;SDS011;18248;51.522;7.020;2024-03-02T04:09:27;6.25;;;1.40;;
31638;SDS011;18248;51.522;7.020;2024-03-02T04:12:25;2.35;;;1.08;;
31638;SDS011;18248;51.522;7.020;2024-03-02T04:15:24;4.95;;;1.42;;
31638;SDS011;18248;51.522;7.020;2024-03-02T04:18:22;2.38;;;0.95;;
31638;SDS011;18248;51.522;7.020;2024-03-02T04:21:21;2.38;;;0.90;;
31638;SDS011;18248;51.522;7.020;2024-03-02T04:24:19;2.40;;;0.98;;
31638;SDS011;18248;51.522;7.020;2024-03-02T04:27:18;2.78;;;0.98;;
31638;SDS011;18248;51.522;7.020;2024-03-02T04:30:16;3.60;;;1.10;;
31638;SDS011;18248;51.522;7.020;2024-03-02T04:33:15;3.42;;;1.02;;
31638;SDS011;18248;51.522;7.020;2024-03-02T04:36:13;4.45;;;1.17;;
31638;SDS011;18248;51.522;7.020;2024-03-02T04:39:12;3.03;;;1.15;;
31638;SDS011;18248;51.522;7.020;2024-03-02T04:42:11;3.67;;;1.30;;
31638;SDS011;18248;51.522;7.020;2024-03-02T04:45:09;3.47;;;1.30;;
31638;SDS011;18248;51.522;7.020;2024-03-02T04:48:08;2.53;;;1.25;;
31638;SDS011;18248;51.522;7.020;2024-03-02T04:51:06;3.60;;;0.90;;
31638;SDS011;18248;51.522;7.020;2024-03-02T04:54:05;3.72;;;1.02;;
31638;SDS011;18248;51.522;7.020;2024-03-02T04:57:03;4.00;;;1.25;;
31638;SDS011;18248;51.522;7.020;2024-03-02T05:00:02;4.22;;;1.27;;
31638;SDS011;18248;51.522;7.020;2024-03-02T05:03:04;1.73;;;0.90;;
31638;SDS011;18248;51.522;7.020;2024-03-02T05:06:03;3.35;;;1.30;;
31638;SDS011;18248;51.522;7.020;2024-03-02T05:09:02;7.20;;;1.20;;
31638;SDS011;18248;51.522;7.020;2024-03-02T05:12:00;1.85;;;1.00;;
31638;SDS011;18248;51.522;7.020;2024-03-02T05:15:18;5.45;;;1.30;;
31638;SDS011;18248;51.522;7.020;2024-03-02T05:18:16;2.22;;;1.10;;
31638;SDS011;18248;51.522;7.020;2024-03-02T05:21:15;3.80;;;1.38;;
31638;SDS011;18248;51.522;7.020;2024-03-02T05:24:13;3.50;;;1.02;;
31638;SDS011;18248;51.522;7.020;2024-03-02T05:27:12;2.67;;;1.20;;
31638;SDS011;18248;51.522;7.020;2024-03-02T05:30:10;4.78;;;1.50;;
31638;SDS011;18248;51.522;7.020;2024-03-02T05:33:09;2.78;;;1.02;;
31638;SDS011;18248;51.522;7.020;2024-03-02T05:36:08;5.18;;;1.45;;
31638;SDS011;18248;51.522;7.020;2024-03-02T05:39:07;3.22;;;1.40;;
31638;SDS011;18248;51.522;7.020;2024-03-02T05:42:07;3.38;;;1.30;;
31638;SDS011;18248;51.522;7.020;2024-03-02T05:45:05;4.25;;;1.25;;
31638;SDS011;18248;51.522;7.020;2024-03-02T05:48:05;6.03;;;1.42;;
31638;SDS011;18248;51.522;7.020;2024-03-02T05:51:07;3.75;;;1.23;;
31638;SDS011;18248;51.522;7.020;2024-03-02T05:54:05;3.13;;;1.17;;
31638;SDS011;18248;51.522;7.020;2024-03-02T05:57:04;3.17;;;1.48;;
31638;SDS011;18248;51.522;7.020;2024-03-02T06:00:15;3.58;;;1.10;;
31638;SDS011;18248;51.522;7.020;2024-03-02T06:03:15;3.63;;;1.58;;
31638;SDS011;18248;51.522;7.020;2024-03-02T06:06:13;3.95;;;1.52;;
31638;SDS011;18248;51.522;7.020;2024-03-02T06:09:12;2.72;;;1.30;;
31638;SDS011;18248;51.522;7.020;2024-03-02T06:12:10;2.85;;;1.20;;
31638;SDS011;18248;51.522;7.020;2024-03-02T06:15:09;5.20;;;1.30;;
31638;SDS011;18248;51.522;7.020;2024-03-02T06:18:08;1.25;;;0.82;;
31638;SDS011;18248;51.522;7.020;2024-03-02T06:21:07;3.72;;;1.20;;
31638;SDS011;18248;51.522;7.020;2024-03-02T06:24:06;2.80;;;1.42;;
31638;SDS011;18248;51.522;7.020;2024-03-02T06:27:05;2.97;;;1.20;;
31638;SDS011;18248;51.522;7.020;2024-03-02T06:30:04;4.53;;;1.90;;
31638;SDS011;18248;51.522;7.020;2024-03-02T06:33:02;2.60;;;1.48;;
31638;SDS011;18248;51.522;7.020;2024-03-02T06:36:02;3.03;;;1.20;;
31638;SDS011;18248;51.522;7.020;2024-03-02T06:39:01;4.00;;;1.48;;
31638;SDS011;18248;51.522;7.020;2024-03-02T06:42:00;3.88;;;1.48;;
31638;SDS011;18248;51.522;7.020;2024-03-02T06:44:58;2.63;;;1.23;;
31638;SDS011;18248;51.522;7.020;2024-03-02T06:47:57;3.60;;;1.63;;
31638;SDS011;18248;51.522;7.020;2024-03-02T06:50:56;4.78;;;1.38;;
31638;SDS011;18248;51.522;7.020;2024-03-02T06:53:56;5.45;;;1.77;;
31638;SDS011;18248;51.522;7.020;2024-03-02T06:56:54;5.20;;;1.35;;
31638;SDS011;18248;51.522;7.020;2024-03-02T06:59:53;5.25;;;1.75;;
31638;SDS011;18248;51.522;7.020;2024-03-02T07:02:55;5.80;;;1.48;;
31638;SDS011;18248;51.522;7.020;2024-03-02T07:05:54;3.65;;;1.42;;
31638;SDS011;18248;51.522;7.020;2024-03-02T07:08:52;2.75;;;1.50;;
31638;SDS011;18248;51.522;7.020;2024-03-02T07:11:51;7.53;;;2.15;;
31638;SDS011;18248;51.522;7.020;2024-03-02T07:14:49;6.60;;;1.80;;
31638;SDS011;18248;51.522;7.020;2024-03-02T07:18:03;5.50;;;2.17;;
31638;SDS011;18248;51.522;7.020;2024-03-02T07:21:02;4.40;;;2.40;;
31638;SDS011;18248;51.522;7.020;2024-03-02T07:24:01;4.60;;;2.10;;
31638;SDS011;18248;51.522;7.020;2024-03-02T07:27:02;7.05;;;2.47;;
31638;SDS011;18248;51.522;7.020;2024-03-02T07:30:05;4.30;;;2.53;;
31638;SDS011;18248;51.522;7.020;2024-03-02T07:33:04;5.18;;;2.08;;
31638;SDS011;18248;51.522;7.020;2024-03-02T07:36:03;5.45;;;2.38;;
31638;SDS011;18248;51.522;7.020;2024-03-02T07:39:02;4.80;;;1.88;;
31638;SDS011;18248;51.522;7.020;2024-03-02T07:42:00;6.20;;;2.78;;
31638;SDS011;18248;51.522;7.020;2024-03-02T07:44:59;6.32;;;2.50;;
31638;SDS011;18248;51.522;7.020;2024-03-02T07:47:57;3.85;;;1.90;;
31638;SDS011;18248;51.522;7.020;2024-03-02T07:50:56;4.15;;;2.20;;
31638;SDS011;18248;51.522;7.020;2024-03-02T07:53:55;5.50;;;2.33;;
31638;SDS011;18248;51.522;7.020;2024-03-02T07:56:53;4.25;;;2.33;;
31638;SDS011;18248;51.522;7.020;2024-03-02T07:59:52;5.50;;;2.25;;
31638;SDS011;18248;51.522;7.020;2024-03-02T08:02:51;4.72;;;2.20;;
31638;SDS011;18248;51.522;7.020;2024-03-02T08:05:50;6.15;;;2.05;;
31638;SDS011;18248;51.522;7.020;2024-03-02T08:08:48;6.65;;;2.45;;
31638;SDS011;18248;51.522;7.020;2024-03-02T08:11:47;4.40;;;2.53;;
31638;SDS011;18248;51.522;7.020;2024-03-02T08:14:46;6.32;;;2.47;;
31638;SDS011;18248;51.522;7.020;2024-03-02T08:17:44;4.18;;;2.25;;
31638;SDS011;18248;51.522;7.020;2024-03-02T08:20:46;6.82;;;2.60;;
31638;SDS011;18248;51.522;7.020;2024-03-02T08:23:44;3.75;;;2.15;;
31638;SDS011;18248;51.522;7.020;2024-03-02T08:26:43;5.35;;;2.03;;
31638;SDS011;18248;51.522;7.020;2024-03-02T08:29:42;4.15;;;2.00;;
31638;SDS011;18248;51.522;7.020;2024-03-02T08:32:40;8.32;;;2.03;;
31638;SDS011;18248;51.522;7.020;2024-03-02T08:35:39;4.75;;;2.30;;
31638;SDS011;18248;51.522;7.020;2024-03-02T08:38:37;3.67;;;1.73;;
31638;SDS011;18248;51.522;7.020;2024-03-02T08:41:36;8.35;;;2.28;;
31638;SDS011;18248;51.522;7.020;2024-03-02T08:44:35;3.65;;;1.80;;
31638;SDS011;18248;51.522;7.020;2024-03-02T08:47:34;4.80;;;2.50;;
31638;SDS011;18248;51.522;7.020;2024-03-02T08:50:33;5.20;;;2.42;;
31638;SDS011;18248;51.522;7.020;2024-03-02T08:53:31;5.53;;;2.00;;
31638;SDS011;18248;51.522;7.020;2024-03-02T08:56:30;6.88;;;2.40;;
31638;SDS011;18248;51.522;7.020;2024-03-02T08:59:29;4.95;;;1.88;;
31638;SDS011;18248;51.522;7.020;2024-03-02T09:02:28;9.60;;;3.47;;
31638;SDS011;18248;51.522;7.020;2024-03-02T09:05:26;7.75;;;3.08;;
31638;SDS011;18248;51.522;7.020;2024-03-02T09:08:25;6.07;;;2.53;;
31638;SDS011;18248;51.522;7.020;2024-03-02T09:11:23;3.90;;;1.80;;
31638;SDS011;18248;51.522;7.020;2024-03-02T09:14:23;4.90;;;1.73;;
31638;SDS011;18248;51.522;7.020;2024-03-02T09:17:21;3.40;;;1.92;;
31638;SDS011;18248;51.522;7.020;2024-03-02T09:20:20;5.95;;;1.70;;
31638;SDS011;18248;51.522;7.020;2024-03-02T09:23:18;3.08;;;1.20;;
31638;SDS011;18248;51.522;7.020;2024-03-02T09:26:17;3.47;;;1.65;;
31638;SDS011;18248;51.522;7.020;2024-03-02T09:29:17;4.85;;;1.88;;
31638;SDS011;18248;51.522;7.020;2024-03-02T09:32:18;4.50;;;1.90;;
31638;SDS011;18248;51.522;7.020;2024-03-02T09:35:16;3.85;;;1.60;;
31638;SDS011;18248;51.522;7.020;2024-03-02T09:38:16;3.47;;;1.63;;
31638;SDS011;18248;51.522;7.020;2024-03-02T09:41:14;7.78;;;3.40;;
31638;SDS011;18248;51.522;7.020;2024-03-02T09:44:13;4.47;;;2.03;;
31638;SDS011;18248;51.522;7.020;2024-03-02T09:47:12;3.38;;;1.95;;
31638;SDS011;18248;51.522;7.020;2024-03-02T09:50:11;4.57;;;1.60;;
31638;SDS011;18248;51.522;7.020;2024-03-02T09:53:10;6.72;;;1.90;;
31638;SDS011;18248;51.522;7.020;2024-03-02T09:56:09;4.93;;;1.85;;
31638;SDS011;18248;51.522;7.020;2024-03-02T09:59:08;4.28;;;1.85;;
31638;SDS011;18248;51.522;7.020;2024-03-02T10:02:07;6.70;;;2.00;;
31638;SDS011;18248;51.522;7.020;2024-03-02T10:05:05;6.82;;;2.13;;
31638;SDS011;18248;51.522;7.020;2024-03-02T10:08:04;6.07;;;1.77;;
31638;SDS011;18248;51.522;7.020;2024-03-02T10:11:03;7.70;;;1.90;;
31638;SDS011;18248;51.522;7.020;2024-03-02T10:14:08;2.65;;;1.13;;
31638;SDS011;18248;51.522;7.020;2024-03-02T10:17:08;5.30;;;1.33;;
31638;SDS011;18248;51.522;7.020;2024-03-02T10:20:24;4.43;;;1.42;;
31638;SDS011;18248;51.522;7.020;2024-03-02T10:23:23;2.85;;;1.30;;
31638;SDS011;18248;51.522;7.020;2024-03-02T10:26:23;4.57;;;1.42;;
31638;SDS011;18248;51.522;7.020;2024-03-02T10:29:21;4.45;;;1.60;;
31638;SDS011;18248;51.522;7.020;2024-03-02T10:32:22;6.00;;;2.17;;
31638;SDS011;18248;51.522;7.020;2024-03-02T10:35:21;6.63;;;1.73;;
31638;SDS011;18248;51.522;7.020;2024-03-02T10:38:21;8.27;;;1.73;;
31638;SDS011;18248;51.522;7.020;2024-03-02T10:41:22;2.45;;;1.30;;
31638;SDS011;18248;51.522;7.020;2024-03-02T10:44:22;5.47;;;2.20;;
31638;SDS011;18248;51.522;7.020;2024-03-02T10:47:21;6.72;;;2.83;;
31638;SDS011;18248;51.522;7.020;2024-03-02T10:50:21;6.85;;;3.28;;
31638;SDS011;18248;51.522;7.020;2024-03-02T10:53:21;5.00;;;2.00;;
31638;SDS011;18248;51.522;7.020;2024-03-02T10:56:27;5.35;;;1.70;;
31638;SDS011;18248;51.522;7.020;2024-03-02T10:59:27;2.70;;;1.45;;
31638;SDS011;18248;51.522;7.020;2024-03-02T11:02:27;6.65;;;1.30;;
31638;SDS011;18248;51.522;7.020;2024-03-02T11:05:29;6.15;;;1.50;;
31638;SDS011;18248;51.522;7.020;2024-03-02T11:08:32;4.93;;;1.15;;
31638;SDS011;18248;51.522;7.020;2024-03-02T11:11:32;4.13;;;1.33;;
31638;SDS011;18248;51.522;7.020;2024-03-02T11:14:35;3.20;;;1.15;;
31638;SDS011;18248;51.522;7.020;2024-03-02T11:17:39;6.20;;;1.90;;
31638;SDS011;18248;51.522;7.020;2024-03-02T11:20:39;6.00;;;1.65;;
31638;SDS011;18248;51.522;7.020;2024-03-02T11:23:38;2.53;;;1.05;;
31638;SDS011;18248;51.522;7.020;2024-03-02T11:26:38;5.70;;;1.60;;
31638;SDS011;18248;51.522;7.020;2024-03-02T11:32:36;6.28;;;1.23;;
31638;SDS011;18248;51.522;7.020;2024-03-02T11:35:40;3.80;;;1.40;;
31638;SDS011;18248;51.522;7.020;2024-03-02T11:38:49;3.45;;;1.33;;
31638;SDS011;18248;51.522;7.020;2024-03-02T11:41:51;2.67;;;1.17;;
31638;SDS011;18248;51.522;7.020;2024-03-02T11:44:49;1.83;;;0.90;;
31638;SDS011;18248;51.522;7.020;2024-03-02T11:47:53;3.83;;;1.40;;
31638;SDS011;18248;51.522;7.020;2024-03-02T11:50:53;5.93;;;1.08;;
31638;SDS011;18248;51.522;7.020;2024-03-02T11:53:55;5.87;;;1.20;;
31638;SDS011;18248;51.522;7.020;2024-03-02T11:56:56;3.97;;;1.60;;
31638;SDS011;18248;51.522;7.020;2024-03-02T11:59:56;8.98;;;1.75;;
31638;SDS011;18248;51.522;7.020;2024-03-02T12:03:03;4.10;;;1.27;;
31638;SDS011;18248;51.522;7.020;2024-03-02T12:06:03;3.67;;;1.20;;
31638;SDS011;18248;51.522;7.020;2024-03-02T12:09:02;6.88;;;1.83;;
31638;SDS011;18248;51.522;7.020;2024-03-02T12:12:06;5.50;;;1.58;;
31638;SDS011;18248;51.522;7.020;2024-03-02T12:15:06;5.03;;;1.13;;
31638;SDS011;18248;51.522;7.020;2024-03-02T12:18:05;3.42;;;1.30;;
31638;SDS011;18248;51.522;7.020;2024-03-02T12:21:04;2.78;;;1.52;;
31638;SDS011;18248;51.522;7.020;2024-03-02T12:24:06;2.92;;;0.80;;
31638;SDS011;18248;51.522;7.020;2024-03-02T12:27:05;4.28;;;1.15;;
31638;SDS011;18248;51.522;7.020;2024-03-02T12:30:05;2.72;;;1.00;;
31638;SDS011;18248;51.522;7.020;2024-03-02T12:33:06;4.10;;;1.30;;
31638;SDS011;18248;51.522;7.020;2024-03-02T12:36:04;4.90;;;1.38;;
31638;SDS011;18248;51.522;7.020;2024-03-02T12:39:07;4.90;;;1.40;;
31638;SDS011;18248;51.522;7.020;2024-03-02T12:42:09;4.13;;;1.17;;
31638;SDS011;18248;51.522;7.020;2024-03-02T12:45:08;4.15;;;1.02;;
31638;SDS011;18248;51.522;7.020;2024-03-02T12:48:07;4.55;;;1.27;;
31638;SDS011;18248;51.522;7.020;2024-03-02T12:51:05;2.42;;;1.17;;
31638;SDS011;18248;51.522;7.020;2024-03-02T12:54:04;5.70;;;1.20;;
31638;SDS011;18248;51.522;7.020;2024-03-02T12:57:03;2.35;;;1.10;;
31638;SDS011;18248;51.522;7.020;2024-03-02T13:00:05;2.58;;;0.82;;
31638;SDS011;18248;51.522;7.020;2024-03-02T13:03:07;2.28;;;1.08;;
31638;SDS011;18248;51.522;7.020;2024-03-02T13:06:06;4.07;;;1.17;;
31638;SDS011;18248;51.522;7.020;2024-03-02T13:09:05;5.10;;;1.55;;
31638;SDS011;18248;51.522;7.020;2024-03-02T13:12:14;2.42;;;1.13;;
31638;SDS011;18248;51.522;7.020;2024-03-02T13:15:14;3.92;;;1.40;;
31638;SDS011;18248;51.522;7.020;2024-03-02T13:18:13;6.50;;;1.30;;
31638;SDS011;18248;51.522;7.020;2024-03-02T13:21:12;2.83;;;1.00;;
31638;SDS011;18248;51.522;7.020;2024-03-02T13:24:10;2.60;;;0.90;;
31638;SDS011;18248;51.522;7.020;2024-03-02T13:27:09;2.17;;;0.85;;
31638;SDS011;18248;51.522;7.020;2024-03-02T13:30:07;2.17;;;0.82;;
31638;SDS011;18248;51.522;7.020;2024-03-02T13:33:09;3.17;;;0.80;;
31638;SDS011;18248;51.522;7.020;2024-03-02T13:36:08;2.63;;;1.10;;
31638;SDS011;18248;51.522;7.020;2024-03-02T13:39:06;2.95;;;1.02;;
31638;SDS011;18248;51.522;7.020;2024-03-02T13:42:08;3.65;;;0.75;;
31638;SDS011;18248;51.522;7.020;2024-03-02T13:45:07;2.05;;;0.73;;
31638;SDS011;18248;51.522;7.020;2024-03-02T13:48:06;2.35;;;0.60;;
31638;SDS011;18248;51.522;7.020;2024-03-02T13:51:05;2.75;;;0.80;;
31638;SDS011;18248;51.522;7.020;2024-03-02T13:54:04;2.42;;;0.90;;
31638;SDS011;18248;51.522;7.020;2024-03-02T13:57:03;0.77;;;0.55;;
31638;SDS011;18248;51.522;7.020;2024-03-02T14:00:02;1.60;;;0.77;;
31638;SDS011;18248;51.522;7.020;2024-03-02T14:03:01;2.97;;;0.70;;
31638;SDS011;18248;51.522;7.020;2024-03-02T14:06:01;0.98;;;0.68;;
31638;SDS011;18248;51.522;7.020;2024-03-02T14:09:00;0.60;;;0.50;;
31638;SDS011;18248;51.522;7.020;2024-03-02T14:11:59;2.80;;;0.90;;
31638;SDS011;18248;51.522;7.020;2024-03-02T14:15:00;3.38;;;0.50;;
31638;SDS011;18248;51.522;7.020;2024-03-02T14:18:00;1.90;;;0.60;;
31638;SDS011;18248;51.522;7.020;2024-03-02T14:20:59;5.70;;;0.80;;
31638;SDS011;18248;51.522;7.020;2024-03-02T14:23:57;1.83;;;0.60;;
31638;SDS011;18248;51.522;7.020;2024-03-02T14:26:56;1.40;;;0.60;;
31638;SDS011;18248;51.522;7.020;2024-03-02T14:30:00;3.72;;;0.80;;
31638;SDS011;18248;51.522;7.020;2024-03-02T14:32:58;3.25;;;0.90;;
31638;SDS011;18248;51.522;7.020;2024-03-02T14:35:57;3.17;;;1.00;;
31638;SDS011;18248;51.522;7.020;2024-03-02T14:38:56;1.55;;;0.77;;
31638;SDS011;18248;51.522;7.020;2024-03-02T14:41:55;3.30;;;1.00;;
31638;SDS011;18248;51.522;7.020;2024-03-02T14:44:53;1.85;;;0.80;;
31638;SDS011;18248;51.522;7.020;2024-03-02T14:47:52;1.35;;;0.60;;
31638;SDS011;18248;51.522;7.020;2024-03-02T14:50:51;2.55;;;1.10;;
31638;SDS011;18248;51.522;7.020;2024-03-02T14:53:50;1.80;;;0.73;;
31638;SDS011;18248;51.522;7.020;2024-03-02T14:56:49;4.13;;;0.55;;
31638;SDS011;18248;51.522;7.020;2024-03-02T14:59:48;1.77;;;0.70;;
31638;SDS011;18248;51.522;7.020;2024-03-02T15:02:46;2.03;;;0.70;;
31638;SDS011;18248;51.522;7.020;2024-03-02T15:05:45;1.25;;;0.50;;
31638;SDS011;18248;51.522;7.020;2024-03-02T15:08:44;3.10;;;0.90;;
31638;SDS011;18248;51.522;7.020;2024-03-02T15:11:46;3.75;;;0.82;;
31638;SDS011;18248;51.522;7.020;2024-03-02T15:14:44;1.38;;;0.70;;
31638;SDS011;18248;51.522;7.020;2024-03-02T15:17:45;3.70;;;0.60;;
31638;SDS011;18248;51.522;7.020;2024-03-02T15:20:43;0.68;;;0.47;;
31638;SDS011;18248;51.522;7.020;2024-03-02T15:23:42;1.23;;;0.70;;
31638;SDS011;18248;51.522;7.020;2024-03-02T15:26:40;3.70;;;0.70;;
31638;SDS011;18248;51.522;7.020;2024-03-02T15:29:39;2.47;;;0.77;;
31638;SDS011;18248;51.522;7.020;2024-03-02T15:32:37;1.55;;;0.80;;
31638;SDS011;18248;51.522;7.020;2024-03-02T15:35:36;0.68;;;0.50;;
31638;SDS011;18248;51.522;7.020;2024-03-02T15:38:35;0.85;;;0.50;;
31638;SDS011;18248;51.522;7.020;2024-03-02T15:41:35;2.78;;;0.90;;
31638;SDS011;18248;51.522;7.020;2024-03-02T15:44:33;3.47;;;0.90;;
31638;SDS011;18248;51.522;7.020;2024-03-02T15:47:32;1.98;;;0.98;;
31638;SDS011;18248;51.522;7.020;2024-03-02T15:50:30;1.70;;;0.82;;
31638;SDS011;18248;51.522;7.020;2024-03-02T15:53:30;2.20;;;0.90;;
31638;SDS011;18248;51.522;7.020;2024-03-02T15:56:29;1.98;;;0.88;;
31638;SDS011;18248;51.522;7.020;2024-03-02T15:59:27;1.95;;;1.10;;
31638;SDS011;18248;51.522;7.020;2024-03-02T16:02:26;2.45;;;1.20;;
31638;SDS011;18248;51.522;7.020;2024-03-02T16:05:24;1.70;;;1.00;;
31638;SDS011;18248;51.522;7.020;2024-03-02T16:08:23;3.50;;;1.10;;
31638;SDS011;18248;51.522;7.020;2024-03-02T16:11:21;3.63;;;1.08;;
31638;SDS011;18248;51.522;7.020;2024-03-02T16:14:20;1.77;;;1.08;;
31638;SDS011;18248;51.522;7.020;2024-03-02T16:17:18;9.68;;;1.30;;
31638;SDS011;18248;51.522;7.020;2024-03-02T16:20:17;3.05;;;1.30;;
31638;SDS011;18248;51.522;7.020;2024-03-02T16:23:15;2.15;;;1.40;;
31638;SDS011;18248;51.522;7.020;2024-03-02T16:26:14;3.30;;;1.58;;
31638;SDS011;18248;51.522;7.020;2024-03-02T16:29:12;4.55;;;1.20;;
31638;SDS011;18248;51.522;7.020;2024-03-02T16:32:12;1.98;;;1.20;;
31638;SDS011;18248;51.522;7.020;2024-03-02T16:35:10;3.70;;;1.30;;
31638;SDS011;18248;51.522;7.020;2024-03-02T16:38:09;1.58;;;1.10;;
31638;SDS011;18248;51.522;7.020;2024-03-02T16:41:08;3.63;;;1.80;;
31638;SDS011;18248;51.522;7.020;2024-03-02T16:44:07;3.25;;;1.77;;
31638;SDS011;18248;51.522;7.020;2024-03-02T16:47:05;5.40;;;1.50;;
31638;SDS011;18248;51.522;7.020;2024-03-02T16:50:04;4.78;;;1.40;;
31638;SDS011;18248;51.522;7.020;2024-03-02T16:53:06;1.80;;;0.90;;
31638;SDS011;18248;51.522;7.020;2024-03-02T16:56:04;3.72;;;1.25;;
31638;SDS011;18248;51.522;7.020;2024-03-02T16:59:04;2.65;;;1.25;;
31638;SDS011;18248;51.522;7.020;2024-03-02T17:02:02;4.22;;;1.50;;
31638;SDS011;18248;51.522;7.020;2024-03-02T17:05:01;3.47;;;1.20;;
31638;SDS011;18248;51.522;7.020;2024-03-02T17:07:59;2.53;;;1.40;;
31638;SDS011;18248;51.522;7.020;2024-03-02T17:10:58;2.30;;;1.10;;
31638;SDS011;18248;51.522;7.020;2024-03-02T17:13:56;2.78;;;1.30;;
31638;SDS011;18248;51.522;7.020;2024-03-02T17:16:55;2.78;;;1.35;;
31638;SDS011;18248;51.522;7.020;2024-03-02T17:19:54;1.75;;;1.10;;
31638;SDS011;18248;51.522;7.020;2024-03-02T17:22:52;5.07;;;1.15;;
31638;SDS011;18248;51.522;7.020;2024-03-02T17:25:51;3.83;;;1.40;;
31638;SDS011;18248;51.522;7.020;2024-03-02T17:28:49;2.35;;;1.20;;
31638;SDS011;18248;51.522;7.020;2024-03-02T17:31:48;1.70;;;0.80;;
31638;SDS011;18248;51.522;7.020;2024-03-02T17:34:46;2.03;;;1.48;;
31638;SDS011;18248;51.522;7.020;2024-03-02T17:37:45;4.57;;;1.45;;
31638;SDS011;18248;51.522;7.020;2024-03-02T17:40:44;2.97;;;1.30;;
31638;SDS011;18248;51.522;7.020;2024-03-02T17:43:43;2.45;;;1.17;;
31638;SDS011;18248;51.522;7.020;2024-03-02T17:46:41;2.65;;;1.00;;
31638;SDS011;18248;51.522;7.020;2024-03-02T17:49:40;3.22;;;1.20;;
31638;SDS011;18248;51.522;7.020;2024-03-02T17:52:39;1.95;;;1.02;;
31638;SDS011;18248;51.522;7.020;2024-03-02T17:55:37;5.20;;;1.42;;
31638;SDS011;18248;51.522;7.020;2024-03-02T17:58:36;3.38;;;1.33;;
31638;SDS011;18248;51.522;7.020;2024-03-02T18:01:35;2.00;;;1.13;;
31638;SDS011;18248;51.522;7.020;2024-03-02T18:04:33;2.75;;;1.50;;
31638;SDS011;18248;51.522;7.020;2024-03-02T18:07:33;3.13;;;1.67;;